Time;durP1;ratioP1;P1;durP2;ratioP2;P2;SDS_P1;SDS_P2;PMS_P1;PMS_P2;Temp;Humidity;BMP_temperature;BMP_pressure;BME280_temperature;BME280_humidity;BME280_pressure;Samples;Min_cycle;Max_cycle;Signal;HPM_P1;HPM_P2
2022/06/11 00:01:39;;;;;;;2.02;1.42;;;;;;;25.78;54.80;101278.80;1591565;89;21060;-49
2022/06/11 00:04:09;;;;;;;1.67;1.57;;;;;;;25.78;54.61;101281.47;1590802;89;21129;-48
2022/06/11 00:06:41;;;;;;;3.47;2.00;;;;;;;25.77;54.66;101280.62;1589178;89;21121;-47
2022/06/11 00:09:08;;;;;;;1.70;1.60;;;;;;;25.77;54.71;101284.61;1589679;89;21075;-48
2022/06/11 00:11:35;;;;;;;2.05;1.80;;;;;;;25.76;54.80;101277.56;1585393;86;21123;-47
2022/06/11 00:14:04;;;;;;;2.40;1.70;;;;;;;25.76;54.92;101276.23;1683434;85;21566;-48
2022/06/11 00:16:32;;;;;;;2.95;1.85;;;;;;;25.75;54.98;101277.22;1686331;85;21502;-47
2022/06/11 00:18:59;;;;;;;1.77;1.67;;;;;;;25.75;54.97;101277.22;1679914;85;21057;-49
2022/06/11 00:21:30;;;;;;;2.58;1.92;;;;;;;25.74;54.97;101274.64;1680960;85;21093;-48
2022/06/11 00:23:56;;;;;;;2.55;1.85;;;;;;;25.74;54.94;101278.17;1681684;85;21073;-47
2022/06/11 00:26:23;;;;;;;2.52;1.87;;;;;;;25.74;54.97;101274.64;1683364;85;21011;-49
2022/06/11 00:28:50;;;;;;;2.08;1.75;;;;;;;25.72;54.91;101274.77;1684508;80;21174;-48
2022/06/11 00:31:17;;;;;;;2.77;2.10;;;;;;;25.73;54.79;101279.16;1775246;80;21045;-48
2022/06/11 00:33:44;;;;;;;2.83;1.70;;;;;;;25.73;54.79;101279.16;1773623;80;20998;-49
2022/06/11 00:36:11;;;;;;;3.02;1.90;;;;;;;25.72;54.88;101278.77;1773459;80;21042;-47
2022/06/11 00:38:39;;;;;;;4.35;2.20;;;;;;;25.71;54.94;101281.09;1783741;80;21007;-50
2022/06/11 00:41:06;;;;;;;2.10;1.57;;;;;;;25.72;55.00;101279.25;1783975;80;21085;-53
2022/06/11 00:43:33;;;;;;;1.67;1.57;;;;;;;25.72;55.00;101279.25;1775121;80;21479;-49
2022/06/11 00:46:27;;;;;;;2.92;1.90;;;;;;;25.72;55.04;101281.91;1774065;80;20994;-49
2022/06/11 00:48:54;;;;;;;2.27;1.70;;;;;;;25.71;54.98;101274.42;1775816;80;21026;-51
2022/06/11 00:51:22;;;;;;;3.80;1.85;;;;;;;25.71;54.98;101274.42;1776688;80;21029;-50
2022/06/11 00:53:59;;;;;;;1.70;1.60;;;;;;;25.71;54.79;101273.09;1789906;80;21545;-50
2022/06/11 00:56:34;;;;;;;1.87;1.60;;;;;;;25.70;54.61;101281.18;1757204;81;21061;-50
2022/06/11 00:59:03;;;;;;;2.50;2.02;;;;;;;25.70;54.39;101278.52;1758547;81;21018;-50
2022/06/11 01:01:30;;;;;;;2.20;1.98;;;;;;;25.70;54.39;101278.52;1758608;81;20997;-50
2022/06/11 01:04:01;;;;;;;2.70;1.67;;;;;;;25.67;54.55;101276.95;1758025;81;22181;-51
2022/06/11 01:06:33;;;;;;;2.08;1.80;;;;;;;25.67;54.55;101276.95;1758590;81;20954;-52
2022/06/11 01:09:29;;;;;;;3.33;1.70;;;;;;;25.65;54.51;101270.89;1758277;81;21085;-49
2022/06/11 01:12:33;;;;;;;2.15;1.50;;;;;;;25.65;54.51;101270.89;1754883;81;21029;-49
2022/06/11 01:15:19;;;;;;;2.98;1.80;;;;;;;25.66;54.66;101273.91;1758656;81;21025;-51
2022/06/11 01:18:13;;;;;;;1.60;1.50;;;;;;;25.65;54.63;101278.89;1757045;81;21006;-50
2022/06/11 01:21:02;;;;;;;1.95;1.85;;;;;;;25.64;54.61;101277.17;1753924;81;21022;-50
2022/06/11 01:23:55;;;;;;;3.27;1.82;;;;;;;25.62;54.50;101271.59;1758734;81;21549;-51
2022/06/11 01:26:51;;;;;;;1.62;1.52;;;;;;;25.61;54.46;101273.91;1758240;81;21026;-50
2022/06/11 01:29:51;;;;;;;3.22;1.75;;;;;;;25.59;54.36;101278.50;1757337;81;21065;-50
2022/06/11 01:32:50;;;;;;;1.77;1.50;;;;;;;25.55;54.51;101274.37;1752596;81;21078;-50
2022/06/11 01:35:43;;;;;;;1.67;1.47;;;;;;;25.54;54.52;101284.65;1740355;81;21122;-49
2022/06/11 01:38:30;;;;;;;3.75;2.30;;;;;;;25.47;54.76;101290.91;1744035;81;21554;-49
2022/06/11 01:41:34;;;;;;;2.17;1.85;;;;;;;25.47;54.76;101290.91;1745117;81;21069;-53
2022/06/11 01:44:08;;;;;;;1.57;1.40;;;;;;;25.45;54.61;101291.52;1750017;81;21016;-49
2022/06/11 01:46:39;;;;;;;2.65;1.60;;;;;;;25.42;54.68;101286.91;1750665;81;21022;-49
2022/06/11 01:49:09;;;;;;;;;;;;;;;25.38;54.66;101286.27;1702306;83;21177;-49
2022/06/11 01:51:46;;;;;;;1.80;1.57;;;;;;;25.37;54.61;101287.21;1714741;83;20134;-50
2022/06/11 01:54:35;;;;;;;1.70;1.60;;;;;;;25.34;54.60;101290.13;1704068;83;21616;-50
2022/06/11 01:57:40;;;;;;;1.70;1.60;;;;;;;25.32;54.52;101294.72;1702853;84;21046;-49
2022/06/11 02:00:25;;;;;;;1.98;1.70;;;;;;;25.30;54.51;101288.66;1702406;84;21554;-49
2022/06/11 02:03:24;;;;;;;2.65;2.00;;;;;;;25.26;54.61;101287.66;1702596;84;21017;-49
2022/06/11 02:06:29;;;;;;;2.37;1.87;;;;;;;25.23;54.67;101281.20;1702626;83;21537;-49
2022/06/11 02:09:19;;;;;;;1.92;1.70;;;;;;;25.20;54.79;101282.31;1697881;84;21044;-49
2022/06/11 02:11:48;;;;;;;3.25;1.77;;;;;;;25.19;54.82;101283.27;1688545;84;21085;-49
2022/06/11 02:14:44;;;;;;;2.42;1.90;;;;;;;25.18;54.86;101290.90;1679353;84;21014;-49
2022/06/11 02:17:19;;;;;;;2.20;2.00;;;;;;;25.15;54.81;101287.11;1649001;86;21047;-49
2022/06/11 02:20:00;;;;;;;2.70;1.65;;;;;;;25.11;54.89;101284.31;1646043;87;21563;-51
2022/06/11 02:22:33;;;;;;;1.77;1.67;;;;;;;25.11;54.89;101284.31;1602422;89;21125;-49
2022/06/11 02:25:14;;;;;;;1.98;1.80;;;;;;;25.11;55.08;101286.97;1524926;93;21078;-49
2022/06/11 02:27:41;;;;;;;1.70;1.60;;;;;;;25.11;55.10;101290.97;1525300;93;21590;-51
2022/06/11 02:30:12;;;;;;;2.00;1.87;;;;;;;25.10;55.17;101298.57;1519608;93;21198;-51
2022/06/11 02:32:40;;;;;;;2.27;1.75;;;;;;;25.10;55.24;101294.58;1516485;94;21082;-49
2022/06/11 02:35:10;;;;;;;2.10;1.55;;;;;;;25.09;55.26;101302.22;1516199;94;21559;-50
2022/06/11 02:37:45;;;;;;;2.67;1.67;;;;;;;25.09;55.22;101304.87;1515042;94;21138;-52
2022/06/11 02:40:20;;;;;;;2.12;1.90;;;;;;;25.09;55.27;101303.55;1508377;94;21150;-49
2022/06/11 02:42:47;;;;;;;1.90;1.72;;;;;;;25.10;55.30;101303.90;1461915;98;21640;-53
2022/06/11 02:45:16;;;;;;;1.92;1.70;;;;;;;25.09;55.37;101303.55;1456983;98;21117;-48
2022/06/11 02:47:45;;;;;;;1.95;1.70;;;;;;;25.11;55.41;101306.95;1458850;98;21175;-50
2022/06/11 02:50:22;;;;;;;1.82;1.42;;;;;;;25.11;55.46;101305.61;1459458;98;21151;-52
2022/06/11 02:52:50;;;;;;;1.70;1.60;;;;;;;25.12;55.48;101313.12;1489318;95;21149;-48
2022/06/11 02:55:17;;;;;;;1.65;1.55;;;;;;;25.12;55.58;101315.33;1504639;95;21102;-47
2022/06/11 02:57:44;;;;;;;3.12;1.45;;;;;;;25.14;55.74;101320.05;1476665;96;21581;-48
2022/06/11 03:00:18;;;;;;;2.37;1.55;;;;;;;25.16;55.70;101320.79;1470342;96;21125;-50
2022/06/11 03:02:47;;;;;;;2.72;1.60;;;;;;;25.17;55.75;101323.80;1503424;95;21093;-51
2022/06/11 03:05:16;;;;;;;2.40;1.67;;;;;;;25.18;55.83;101325.52;1503927;95;21077;-49
2022/06/11 03:07:43;;;;;;;1.90;1.70;;;;;;;25.20;55.84;101330.25;1504153;95;21144;-48
2022/06/11 03:10:15;;;;;;;1.82;1.70;;;;;;;25.24;55.81;101331.73;1502980;95;21085;-49
2022/06/11 03:12:42;;;;;;;1.82;1.50;;;;;;;25.26;55.74;101331.61;1508187;92;21585;-49
2022/06/11 03:15:10;;;;;;;2.42;1.77;;;;;;;25.29;55.92;101332.22;1541220;93;21099;-48
2022/06/11 03:17:37;;;;;;;2.52;1.77;;;;;;;25.29;55.92;101332.22;1539567;92;21570;-51
2022/06/11 03:20:07;;;;;;;2.37;1.87;;;;;;;25.32;55.77;101336.01;1538172;92;21122;-48
2022/06/11 03:22:33;;;;;;;3.00;2.05;;;;;;;25.35;55.78;101333.09;1531305;94;21094;-49
2022/06/11 03:25:00;;;;;;;2.87;2.12;;;;;;;25.39;55.76;101325.25;1540752;93;21135;-49
2022/06/11 03:27:27;;;;;;;2.00;1.80;;;;;;;25.46;55.68;101328.34;1549144;89;21086;-49
2022/06/11 03:29:54;;;;;;;1.90;1.70;;;;;;;25.49;55.78;101336.95;1643485;86;21105;-51
2022/06/11 03:32:20;;;;;;;3.33;1.92;;;;;;;25.49;55.78;101336.95;1648688;86;21093;-48
2022/06/11 03:34:48;;;;;;;3.87;1.80;;;;;;;25.57;55.78;101326.59;1641133;86;21023;-49
2022/06/11 03:37:15;;;;;;;1.70;1.60;;;;;;;25.57;55.78;101326.59;1643977;86;21094;-47
2022/06/11 03:39:44;;;;;;;2.85;1.70;;;;;;;25.68;56.24;101326.62;1707131;82;21066;-49
2022/06/11 03:42:11;;;;;;;1.50;1.40;;;;;;;25.86;55.95;101326.20;1753882;81;21018;-48
2022/06/11 03:44:39;;;;;;;2.55;1.47;;;;;;;26.09;55.22;101321.32;1753834;82;21021;-50
2022/06/11 03:47:06;;;;;;;2.85;1.30;;;;;;;26.53;54.25;101328.02;1754168;81;20967;-48
2022/06/11 03:49:33;;;;;;;1.52;1.22;;;;;;;27.14;53.14;101330.16;1754133;81;21018;-49
2022/06/11 03:52:01;;;;;;;3.83;1.40;;;;;;;27.87;51.34;101332.95;1748362;80;21066;-48
2022/06/11 03:54:28;;;;;;;2.77;1.40;;;;;;;28.67;49.33;101330.47;1773067;80;21018;-50
2022/06/11 03:56:55;;;;;;;2.15;1.55;;;;;;;29.47;47.31;101332.61;1775016;80;21048;-48
2022/06/11 03:59:22;;;;;;;1.17;1.15;;;;;;;30.21;45.56;101322.42;1773648;80;21054;-54
2022/06/11 04:01:49;;;;;;;1.65;1.27;;;;;;;30.87;44.04;101327.75;1785434;80;21049;-52
2022/06/11 04:04:18;;;;;;;2.22;1.12;;;;;;;31.30;42.73;101322.52;1783840;80;20991;-48
2022/06/11 04:06:56;;;;;;;3.55;1.30;;;;;;;31.43;41.71;101325.68;1772495;80;20998;-54
2022/06/11 04:09:32;;;;;;;1.32;1.22;;;;;;;31.33;41.52;101317.67;1758467;81;20990;-49
2022/06/11 04:11:59;;;;;;;2.58;1.62;;;;;;;31.09;41.72;101313.88;1663028;86;21084;-49
2022/06/11 04:14:26;;;;;;;1.50;1.10;;;;;;;30.80;42.08;101323.92;1663902;86;21081;-48
2022/06/11 04:16:58;;;;;;;1.50;1.40;;;;;;;30.53;42.54;101320.24;1658000;86;21069;-49
2022/06/11 04:19:34;;;;;;;2.33;1.50;;;;;;;30.26;42.87;101314.80;1610660;89;21140;-49
2022/06/11 04:22:00;;;;;;;1.20;1.10;;;;;;;29.98;43.24;101315.73;1612074;89;21050;-49
2022/06/11 04:24:28;;;;;;;2.52;1.50;;;;;;;29.71;43.83;101323.63;1611816;89;21070;-49
2022/06/11 04:26:58;;;;;;;1.90;1.30;;;;;;;29.44;44.28;101330.19;1612053;89;21074;-48
2022/06/11 04:29:29;;;;;;;2.77;1.32;;;;;;;29.18;44.69;101330.38;1611825;89;21097;-51
2022/06/11 04:31:57;;;;;;;2.08;1.82;;;;;;;28.93;45.23;101335.21;1612134;89;21136;-48
2022/06/11 04:34:25;;;;;;;2.02;1.47;;;;;;;28.71;45.74;101331.41;1612032;89;21106;-48
2022/06/11 04:36:52;;;;;;;2.12;1.30;;;;;;;28.52;46.20;101336.65;1609638;89;21618;-49
2022/06/11 04:39:21;;;;;;;1.98;1.30;;;;;;;28.35;46.66;101327.07;1611805;89;21608;-49
2022/06/11 04:41:48;;;;;;;1.92;1.45;;;;;;;28.21;47.19;101336.31;1611985;89;21594;-49
2022/06/11 04:44:15;;;;;;;2.02;1.40;;;;;;;28.07;47.67;101337.95;1611802;89;21070;-49
2022/06/11 04:46:43;;;;;;;2.25;1.30;;;;;;;27.97;47.96;101338.38;1618873;88;21121;-50
2022/06/11 04:49:10;;;;;;;2.80;1.50;;;;;;;27.87;48.03;101337.44;1634394;87;21099;-50
2022/06/11 04:51:37;;;;;;;2.40;1.47;;;;;;;27.81;48.19;101345.98;1646572;87;21051;-50
2022/06/11 04:54:05;;;;;;;2.25;1.37;;;;;;;27.76;48.38;101348.21;1641618;87;21056;-48
2022/06/11 04:56:32;;;;;;;3.75;1.40;;;;;;;27.72;48.66;101354.80;1641196;87;21029;-48
2022/06/11 04:58:58;;;;;;;1.50;1.40;;;;;;;27.69;48.86;101357.71;1641491;87;21048;-49
2022/06/11 05:01:26;;;;;;;1.65;1.42;;;;;;;27.69;48.85;101365.25;1641249;87;21091;-54
2022/06/11 05:03:54;;;;;;;1.22;1.12;;;;;;;27.72;49.05;101362.81;1641095;87;21516;-50
2022/06/11 05:06:23;;;;;;;2.65;1.50;;;;;;;27.79;48.76;101368.00;1641259;86;21617;-50
2022/06/11 05:08:49;;;;;;;1.30;1.10;;;;;;;27.88;48.78;101379.27;1641392;87;21485;-49
2022/06/11 05:11:17;;;;;;;3.22;1.47;;;;;;;27.98;48.42;101374.88;1641306;87;21074;-49
2022/06/11 05:13:45;;;;;;;3.20;1.37;;;;;;;28.07;48.21;101374.07;1641575;87;21091;-48
2022/06/11 05:16:13;;;;;;;1.40;1.30;;;;;;;28.14;48.13;101367.23;1709398;80;21006;-50
2022/06/11 05:18:42;;;;;;;1.75;1.40;;;;;;;28.24;47.89;101368.14;1765532;80;21601;-52
2022/06/11 05:21:09;;;;;;;1.50;1.17;;;;;;;28.30;47.48;101366.75;1784037;80;21034;-51
2022/06/11 05:23:37;;;;;;;1.80;1.20;;;;;;;28.29;47.43;101368.61;1775349;80;21514;-49
2022/06/11 05:26:05;;;;;;;2.25;1.30;;;;;;;28.30;47.49;101372.11;1781419;80;21045;-49
2022/06/11 05:28:32;;;;;;;2.10;1.27;;;;;;;28.28;47.52;101372.25;1778555;80;21002;-48
2022/06/11 05:30:59;;;;;;;1.32;1.07;;;;;;;28.30;47.98;101374.30;1771502;80;21034;-50
2022/06/11 05:33:26;;;;;;;1.12;0.90;;;;;;;28.37;47.63;101383.52;1772682;80;21065;-48
2022/06/11 05:35:53;;;;;;;1.82;1.15;;;;;;;28.46;47.06;101388.05;1787362;80;21034;-49
2022/06/11 05:38:24;;;;;;;2.15;1.00;;;;;;;28.57;46.96;101382.66;1772719;80;21483;-51
2022/06/11 05:40:51;;;;;;;1.47;1.22;;;;;;;28.69;46.84;101384.27;1782141;80;21374;-50
2022/06/11 05:43:18;;;;;;;3.27;1.20;;;;;;;28.81;46.48;101384.52;1780385;80;21058;-49
2022/06/11 05:45:53;;;;;;;1.05;1.02;;;;;;;28.72;46.33;101382.67;1778463;80;21656;-48
2022/06/11 05:48:24;;;;;;;1.50;1.40;;;;;;;28.68;46.82;101383.92;1736390;82;21061;-49
2022/06/11 05:50:52;;;;;;;1.55;1.40;;;;;;;28.74;46.54;101378.03;1708316;83;21038;-48
2022/06/11 05:53:20;;;;;;;1.25;1.10;;;;;;;28.82;46.74;101380.88;1698934;83;21089;-48
2022/06/11 05:55:48;;;;;;;1.67;1.25;;;;;;;28.92;46.59;101387.12;1674431;84;21646;-49
2022/06/11 05:58:22;;;;;;;1.75;1.22;;;;;;;29.03;46.14;101386.66;1664439;85;21022;-52
2022/06/11 06:00:50;;;;;;;1.17;1.00;;;;;;;29.13;45.84;101387.04;1711038;82;21506;-48
2022/06/11 06:03:17;;;;;;;1.62;1.50;;;;;;;29.28;45.59;101383.52;1705106;83;21074;-48
2022/06/11 06:05:44;;;;;;;1.22;1.17;;;;;;;29.42;45.29;101379.09;1702725;83;21026;-50
2022/06/11 06:08:11;;;;;;;1.50;1.30;;;;;;;29.80;44.00;101387.17;1668598;85;21107;-52
2022/06/11 06:10:40;;;;;;;1.22;1.02;;;;;;;29.94;43.39;101385.43;1667368;85;21035;-47
2022/06/11 06:13:45;;;;;;;2.10;1.30;;;;;;;30.06;43.28;101384.77;1738068;82;21030;-49
2022/06/11 06:15:37;;;;;;;1.40;1.27;;;;;;;30.14;43.19;101381.73;1696031;83;21078;-49
2022/06/11 06:18:06;;;;;;;1.65;1.07;;;;;;;30.23;42.72;101375.99;1699764;83;21560;-47
2022/06/11 06:20:32;;;;;;;1.67;1.25;;;;;;;30.33;42.24;101380.39;1677875;85;21549;-48
2022/06/11 06:23:01;;;;;;;2.67;1.10;;;;;;;30.48;42.28;101386.97;1669349;85;21515;-48
2022/06/11 06:25:28;;;;;;;2.47;1.50;;;;;;;30.68;41.85;101385.08;1699977;83;21070;-49
2022/06/11 06:27:55;;;;;;;1.62;1.10;;;;;;;30.91;41.87;101392.30;1700095;83;21089;-49
2022/06/11 06:30:22;;;;;;;3.37;1.30;;;;;;;31.18;41.44;101394.98;1707116;83;21534;-48
2022/06/11 06:32:48;;;;;;;1.42;1.00;;;;;;;31.40;40.99;101404.00;1696478;83;20995;-48
2022/06/11 06:35:15;;;;;;;1.40;1.00;;;;;;;31.52;40.07;101397.41;1706930;83;21002;-47
2022/06/11 06:37:42;;;;;;;1.32;1.20;;;;;;;31.56;39.89;101393.41;1700095;83;21075;-50
2022/06/11 06:40:12;;;;;;;2.30;1.10;;;;;;;31.54;40.05;101391.86;1702224;83;21481;-49
2022/06/11 06:42:39;;;;;;;1.32;1.05;;;;;;;31.47;40.04;101402.91;1706461;83;21038;-48
2022/06/11 06:45:07;;;;;;;1.32;1.22;;;;;;;31.37;40.28;101402.91;1720792;82;21041;-48
2022/06/11 06:47:35;;;;;;;1.67;1.17;;;;;;;31.28;40.46;101403.84;1736924;82;21018;-50
2022/06/11 06:50:05;;;;;;;2.65;1.30;;;;;;;31.19;40.70;101402.04;1717369;83;21053;-50
2022/06/11 06:52:32;;;;;;;1.60;1.20;;;;;;;31.06;40.96;101397.50;1769281;80;21054;-47
2022/06/11 06:54:59;;;;;;;2.35;1.20;;;;;;;30.95;41.04;101397.72;1762576;81;21486;-49
2022/06/11 06:57:26;;;;;;;2.85;1.30;;;;;;;30.84;40.91;101401.90;1765047;81;20991;-47
2022/06/11 06:59:54;;;;;;;2.25;1.27;;;;;;;30.71;41.10;101401.41;1776161;81;21459;-50
2022/06/11 07:02:21;;;;;;;3.95;1.70;;;;;;;30.54;41.47;101403.84;1770099;81;21053;-47
2022/06/11 07:04:48;;;;;;;1.60;1.30;;;;;;;30.40;41.65;101398.94;1765338;80;21019;-48
2022/06/11 07:07:17;;;;;;;2.40;1.47;;;;;;;30.28;41.96;101402.75;1764229;80;21019;-48
2022/06/11 07:09:43;;;;;;;1.55;1.30;;;;;;;30.18;42.19;101411.31;1710243;83;21034;-48
2022/06/11 07:12:11;;;;;;;1.45;1.30;;;;;;;30.09;42.26;101404.11;1705255;83;21058;-47
2022/06/11 07:14:38;;;;;;;1.77;1.30;;;;;;;30.08;42.50;101415.85;1706846;83;21034;-49
2022/06/11 07:17:06;;;;;;;1.50;1.35;;;;;;;30.06;42.26;101413.81;1706343;83;21082;-48
2022/06/11 07:19:39;;;;;;;1.75;1.50;;;;;;;30.04;42.39;101411.77;1717280;83;21018;-50
2022/06/11 07:22:10;;;;;;;2.87;1.50;;;;;;;29.98;42.32;101406.97;1596971;89;21122;-47
2022/06/11 07:24:37;;;;;;;2.83;1.30;;;;;;;29.90;42.59;101412.20;1628713;88;21539;-47
2022/06/11 07:27:09;;;;;;;1.37;1.20;;;;;;;29.84;42.78;101415.45;1613920;88;21058;-49
2022/06/11 07:29:40;;;;;;;1.87;1.55;;;;;;;29.79;43.18;101417.69;1615604;88;21077;-50
2022/06/11 07:32:13;;;;;;;1.77;1.50;;;;;;;29.76;43.70;101420.64;1615807;88;21058;-47
2022/06/11 07:34:40;;;;;;;1.30;1.20;;;;;;;29.78;43.67;101425.89;1616068;88;21023;-47
2022/06/11 07:37:07;;;;;;;1.35;1.25;;;;;;;29.78;43.11;101425.38;1615683;88;21102;-50
2022/06/11 07:39:35;;;;;;;1.75;1.50;;;;;;;29.73;43.08;101419.11;1615789;88;21039;-48
2022/06/11 07:42:02;;;;;;;2.05;1.45;;;;;;;29.71;43.24;101421.05;1615703;88;21058;-47
2022/06/11 07:44:31;;;;;;;2.90;1.37;;;;;;;29.69;43.40;101424.38;1613393;88;21752;-47
2022/06/11 07:46:59;;;;;;;1.98;1.30;;;;;;;29.69;43.25;101422.17;1613600;88;21042;-47
2022/06/11 07:49:27;;;;;;;2.75;1.40;;;;;;;29.68;43.56;101431.19;1614276;88;21114;-47
2022/06/11 07:51:54;;;;;;;2.67;1.40;;;;;;;29.63;43.39;101430.78;1615784;88;21098;-48
2022/06/11 07:54:21;;;;;;;2.25;1.60;;;;;;;29.60;43.49;101433.73;1626297;87;21506;-49
2022/06/11 07:56:48;;;;;;;1.90;1.60;;;;;;;29.55;43.58;101438.67;1621405;88;21144;-50
2022/06/11 07:59:15;;;;;;;2.72;1.50;;;;;;;29.49;43.71;101428.51;1620523;88;21130;-48
2022/06/11 08:01:42;;;;;;;2.30;1.35;;;;;;;29.44;44.01;101433.42;1621471;88;21058;-50
2022/06/11 08:04:09;;;;;;;1.42;1.32;;;;;;;29.42;44.13;101427.35;1623227;88;21566;-47
2022/06/11 08:06:37;;;;;;;1.95;1.47;;;;;;;29.42;44.11;101434.05;1648223;86;21086;-47
2022/06/11 08:09:04;;;;;;;1.72;1.60;;;;;;;29.42;44.03;101438.08;1663887;86;21038;-48
2022/06/11 08:11:31;;;;;;;2.00;1.80;;;;;;;29.41;44.14;101441.72;1664384;86;21070;-47
2022/06/11 08:14:00;;;;;;;3.42;1.70;;;;;;;29.43;44.21;101437.11;1663773;86;21022;-48
2022/06/11 08:16:27;;;;;;;1.87;1.40;;;;;;;29.45;44.21;101435.13;1664026;86;21174;-47
2022/06/11 08:18:54;;;;;;;1.82;1.17;;;;;;;29.47;43.96;101442.55;1663748;86;21046;-48
2022/06/11 08:21:21;;;;;;;3.37;1.35;;;;;;;29.47;44.10;101446.57;1663884;86;21026;-47
2022/06/11 08:23:49;;;;;;;2.27;1.50;;;;;;;29.47;44.34;101442.55;1651118;86;21042;-48
2022/06/11 08:26:15;;;;;;;2.12;1.45;;;;;;;29.45;44.13;101448.54;1743813;82;21030;-47
2022/06/11 08:28:42;;;;;;;1.72;1.50;;;;;;;29.43;43.99;101447.83;1753787;82;21057;-50
2022/06/11 08:31:09;;;;;;;1.87;1.55;;;;;;;29.38;43.94;101444.70;1753868;82;21045;-48
2022/06/11 08:33:36;;;;;;;2.62;1.80;;;;;;;29.33;43.77;101442.91;1753841;82;21533;-47
2022/06/11 08:36:03;;;;;;;3.50;1.70;;;;;;;29.29;44.13;101438.80;1754010;82;21034;-48
2022/06/11 08:38:32;;;;;;;3.02;1.55;;;;;;;29.27;44.08;101436.27;1753828;82;21049;-47
2022/06/11 08:40:59;;;;;;;2.65;1.90;;;;;;;29.26;44.03;101436.41;1754305;82;21513;-47
2022/06/11 08:43:33;;;;;;;2.77;1.62;;;;;;;29.25;44.17;101438.72;1753853;82;21085;-49
2022/06/11 08:46:09;;;;;;;6.70;2.08;;;;;;;29.23;44.44;101442.03;1713528;83;21058;-49
2022/06/11 08:48:49;;;;;;;1.57;1.47;;;;;;;29.23;44.38;101440.70;1704824;83;21133;-48
2022/06/11 08:51:35;;;;;;;2.08;1.87;;;;;;;29.22;44.13;101449.73;1699603;83;20995;-50
2022/06/11 08:54:12;;;;;;;2.35;1.55;;;;;;;29.20;44.19;101445.86;1701710;83;21125;-49
2022/06/11 08:57:02;;;;;;;1.80;1.55;;;;;;;29.20;44.24;101440.98;1672842;84;21080;-49
2022/06/11 08:59:51;;;;;;;2.10;1.70;;;;;;;29.19;44.04;101444.63;1677243;84;21098;-55
2022/06/11 09:02:52;;;;;;;2.08;1.52;;;;;;;29.17;43.96;101445.27;1615017;87;21099;-50
2022/06/11 09:05:31;;;;;;;;;;;;;;;29.11;44.18;101444.44;1621841;87;21028;-51
2022/06/11 09:08:38;;;;;;;2.85;1.70;;;;;;;29.07;44.34;101443.01;1627022;87;20436;-50
2022/06/11 09:11:16;;;;;;;1.85;1.35;;;;;;;29.02;44.52;101439.91;1625035;87;21059;-49
2022/06/11 09:14:17;;;;;;;2.15;1.40;;;;;;;28.94;44.78;101445.43;1614707;87;21118;-52
2022/06/11 09:17:25;;;;;;;1.65;1.55;;;;;;;28.90;44.97;101442.66;1625324;87;21071;-53
2022/06/11 09:20:17;;;;;;;1.57;1.37;;;;;;;28.85;45.17;101444.88;1614164;87;21110;-52
2022/06/11 09:23:04;;;;;;;2.40;1.45;;;;;;;28.84;45.43;101443.69;1612966;87;21578;-51
2022/06/11 09:25:55;;;;;;;2.25;1.60;;;;;;;28.84;45.45;101437.84;1611667;87;21134;-52
2022/06/11 09:28:45;;;;;;;1.95;1.55;;;;;;;28.84;45.45;101440.52;1578942;89;21063;-53
2022/06/11 09:31:17;;;;;;;2.52;1.52;;;;;;;28.87;45.59;101433.55;1501818;95;21593;-51
2022/06/11 09:34:17;;;;;;;2.27;1.70;;;;;;;28.86;45.49;101435.88;1519896;92;21088;-50
2022/06/11 09:36:55;;;;;;;1.95;1.42;;;;;;;28.84;45.40;101433.83;1520182;92;21097;-52
2022/06/11 09:39:34;;;;;;;2.87;1.70;;;;;;;28.80;45.54;101425.70;1514097;92;21144;-54
2022/06/11 09:42:16;;;;;;;2.75;1.40;;;;;;;28.77;45.83;101427.30;1526773;92;21116;-52
2022/06/11 09:45:10;;;;;;;2.85;1.90;;;;;;;28.74;46.13;101422.22;1524609;93;21093;-50
2022/06/11 09:48:16;;;;;;;2.62;1.52;;;;;;;28.72;46.29;101426.86;1527626;93;21085;-51
2022/06/11 09:51:15;;;;;;;3.45;1.60;;;;;;;28.73;46.61;101426.35;1518754;93;21089;-53
2022/06/11 09:54:20;;;;;;;1.75;1.47;;;;;;;28.69;46.73;101428.45;1534923;91;21141;-52
2022/06/11 09:57:27;;;;;;;4.00;1.80;;;;;;;28.69;46.78;101431.13;1523371;93;21149;-50
2022/06/11 10:00:11;;;;;;;2.67;2.22;;;;;;;28.69;46.90;101432.47;1522521;93;21585;-51
2022/06/11 10:05:55;;;;;;;2.42;1.50;;;;;;;28.72;46.84;101430.88;1439866;97;21686;-53
2022/06/11 10:08:40;;;;;;;1.95;1.60;;;;;;;28.73;46.86;101431.22;1409928;100;21042;-53
2022/06/11 10:11:30;;;;;;;1.62;1.47;;;;;;;28.75;46.95;101431.94;1425235;100;21218;-53
2022/06/11 10:14:29;;;;;;;1.82;1.52;;;;;;;28.73;46.14;101429.88;1416053;100;21178;-53
2022/06/11 10:17:28;;;;;;;2.50;1.80;;;;;;;28.73;46.14;101429.88;1424833;99;21235;-51
2022/06/11 10:20:02;;;;;;;1.80;1.50;;;;;;;28.71;46.34;101436.34;1425217;99;21101;-49
2022/06/11 10:22:59;;;;;;;2.85;1.75;;;;;;;28.67;46.44;101439.80;1426731;99;21113;-52
2022/06/11 10:25:56;;;;;;;2.62;1.62;;;;;;;28.63;46.67;101439.70;1425107;99;21701;-50
2022/06/11 10:31:21;;;;;;;2.10;1.90;;;;;;;28.56;47.23;101434.53;1374261;103;21228;-53
2022/06/11 10:34:00;;;;;;;1.70;1.50;;;;;;;28.56;47.29;101426.50;1405639;101;21962;-51
2022/06/11 10:36:34;;;;;;;1.92;1.52;;;;;;;28.58;46.91;101429.89;1421754;99;21117;-49
2022/06/11 10:39:23;;;;;;;2.55;1.52;;;;;;;28.59;46.80;101427.56;1430725;99;21605;-49
2022/06/11 10:42:16;;;;;;;2.50;1.57;;;;;;;28.59;46.61;101427.56;1432672;93;21102;-50
2022/06/11 10:44:50;;;;;;;1.85;1.75;;;;;;;28.61;46.76;101422.92;1542094;93;21151;-52
2022/06/11 10:47:39;;;;;;;1.80;1.70;;;;;;;28.64;46.79;101426.69;1541725;93;21102;-53
2022/06/11 10:50:17;;;;;;;1.87;1.77;;;;;;;28.68;46.89;101424.09;1529462;91;21094;-52
2022/06/11 10:53:12;;;;;;;3.85;2.30;;;;;;;28.69;46.81;101420.42;1644869;87;21103;-53
2022/06/11 10:55:51;;;;;;;3.08;1.85;;;;;;;28.72;46.41;101418.83;1562553;90;21129;-52
2022/06/11 10:58:35;;;;;;;5.92;3.60;;;;;;;28.71;46.62;101415.78;1527484;94;21121;-53
2022/06/11 11:01:11;;;;;;;2.72;1.70;;;;;;;28.73;46.57;101402.24;1533813;93;21118;-52
2022/06/11 11:04:03;;;;;;;2.20;2.00;;;;;;;28.75;46.83;101403.81;1536700;93;21090;-52
2022/06/11 11:06:34;;;;;;;3.27;1.67;;;;;;;28.77;46.98;101393.81;1525491;93;21655;-52
2022/06/11 11:09:10;;;;;;;2.42;1.60;;;;;;;28.82;47.02;101387.58;1524860;93;21095;-50
2022/06/11 11:11:53;;;;;;;2.98;2.10;;;;;;;28.85;46.76;101381.92;1468525;96;21665;-51
2022/06/11 11:14:33;;;;;;;3.77;2.12;;;;;;;28.86;46.80;101382.78;1445919;97;21136;-52
2022/06/11 11:17:01;;;;;;;3.55;2.45;;;;;;;28.86;46.84;101378.28;1454554;97;22726;-50
2022/06/11 11:19:32;;;;;;;3.65;3.08;;;;;;;28.89;46.79;101376.66;1462408;96;21589;-53
2022/06/11 11:22:09;;;;;;;2.65;2.10;;;;;;;28.92;46.63;101383.09;1434630;99;21620;-52
2022/06/11 11:24:43;;;;;;;2.95;1.70;;;;;;;28.93;46.71;101370.04;1435925;99;21149;-52
2022/06/11 11:27:23;;;;;;;19.17;14.80;;;;;;;28.92;46.83;101379.08;1411042;95;21118;-52
2022/06/11 11:29:57;;;;;;;7.25;6.53;;;;;;;28.92;46.97;101376.88;1499148;95;21138;-51
2022/06/11 11:32:37;;;;;;;4.25;3.47;;;;;;;28.91;46.96;101373.34;1530822;92;22633;-53
2022/06/11 11:35:18;;;;;;;2.35;2.15;;;;;;;28.92;46.86;101373.72;1488197;96;21071;-53
2022/06/11 11:37:50;;;;;;;2.17;1.65;;;;;;;28.95;46.84;101370.75;1501821;95;21093;-49
2022/06/11 11:40:31;;;;;;;3.80;1.90;;;;;;;28.97;47.01;101370.13;1500584;94;21110;-51
2022/06/11 11:43:09;;;;;;;2.80;2.10;;;;;;;29.02;47.07;101367.55;1501935;94;21055;-51
2022/06/11 11:45:49;;;;;;;3.40;2.15;;;;;;;29.04;46.94;101361.05;1501013;95;21102;-49
2022/06/11 11:48:36;;;;;;;2.25;2.05;;;;;;;29.04;47.00;101350.33;1498666;94;21089;-50
2022/06/11 11:51:14;;;;;;;2.37;1.98;;;;;;;29.05;47.13;101353.87;1414236;101;21140;-51
2022/06/11 11:53:47;;;;;;;2.12;1.60;;;;;;;29.04;47.09;101353.53;1401327;101;21168;-50
2022/06/11 11:56:40;;;;;;;3.40;2.20;;;;;;;29.03;47.08;101347.80;1431030;99;21141;-50
2022/06/11 11:59:26;;;;;;;3.12;1.62;;;;;;;29.03;47.14;101345.13;1428891;99;21114;-52
2022/06/11 12:01:57;;;;;;;2.33;1.55;;;;;;;29.03;47.33;101347.80;1429628;98;21151;-51
2022/06/11 12:04:31;;;;;;;3.60;1.50;;;;;;;29.01;47.07;101339.05;1439691;99;21160;-49